createdAt,value
2023-04-17T00:01:41.164Z,15.88
2023-04-17T00:04:13.509Z,15.60
2023-04-17T00:06:43.188Z,15.70
2023-04-17T00:09:10.729Z,15.48
2023-04-17T00:11:37.455Z,14.90
2023-04-17T00:14:04.173Z,15.40
2023-04-17T00:16:30.728Z,15.73
2023-04-17T00:18:57.381Z,14.50
2023-04-17T00:21:23.824Z,15.63
2023-04-17T00:23:50.273Z,16.88
2023-04-17T00:26:16.760Z,17.45
2023-04-17T00:28:43.266Z,16.30
2023-04-17T00:31:09.740Z,15.87
2023-04-17T00:33:36.202Z,15.38
2023-04-17T00:36:02.744Z,16.05
2023-04-17T00:38:29.149Z,15.05
2023-04-17T00:40:55.706Z,16.52
2023-04-17T00:43:22.240Z,17.37
2023-04-17T00:45:49.040Z,15.23
2023-04-17T00:48:17.826Z,22.52
2023-04-17T00:50:45.498Z,20.42
2023-04-17T00:53:12.363Z,17.30
2023-04-17T00:55:40.787Z,16.53
2023-04-17T00:58:07.703Z,18.73
2023-04-17T01:00:34.939Z,19.77
2023-04-17T01:03:02.134Z,19.90
2023-04-17T01:05:29.010Z,21.90
2023-04-17T01:07:57.422Z,19.83
2023-04-17T01:10:24.711Z,19.90
2023-04-17T01:13:04.470Z,18.08
2023-04-17T01:15:31.083Z,19.13
2023-04-17T01:17:57.875Z,21.13
2023-04-17T01:20:31.361Z,21.47
2023-04-17T01:22:59.255Z,20.58
2023-04-17T01:25:26.384Z,18.48
2023-04-17T01:27:52.983Z,20.48
2023-04-17T01:30:19.993Z,20.83
2023-04-17T01:32:46.701Z,19.83
2023-04-17T01:35:13.236Z,19.45
2023-04-17T01:37:39.768Z,21.00
2023-04-17T01:40:07.382Z,21.40
2023-04-17T01:42:34.537Z,20.98
2023-04-17T01:45:00.962Z,20.00
2023-04-17T01:47:27.466Z,20.88
2023-04-17T01:49:54.135Z,20.55
2023-04-17T01:52:20.598Z,20.77
2023-04-17T01:54:47.171Z,22.30
2023-04-17T01:57:13.596Z,23.67
2023-04-17T01:59:40.270Z,22.45
2023-04-17T02:02:06.880Z,22.40
2023-04-17T02:04:33.507Z,26.70
2023-04-17T02:06:59.916Z,23.38
2023-04-17T02:09:26.948Z,20.10
2023-04-17T02:11:53.400Z,25.50
2023-04-17T02:14:20.953Z,31.92
2023-04-17T02:16:47.473Z,23.50
2023-04-17T02:19:14.132Z,23.73
2023-04-17T02:21:40.675Z,34.40
2023-04-17T02:24:07.197Z,20.80
2023-04-17T02:26:33.807Z,20.27
2023-04-17T02:29:00.576Z,20.98
2023-04-17T02:31:27.179Z,19.80
2023-04-17T02:33:53.613Z,20.17
2023-04-17T02:36:20.052Z,20.25
2023-04-17T02:38:46.642Z,20.27
2023-04-17T02:41:13.196Z,21.27
2023-04-17T02:43:39.581Z,22.23
2023-04-17T02:46:06.030Z,21.07
2023-04-17T02:48:32.469Z,23.38
2023-04-17T02:50:58.975Z,24.30
2023-04-17T02:53:25.451Z,23.55
2023-04-17T02:55:51.925Z,23.88
2023-04-17T02:58:18.463Z,22.70
2023-04-17T03:00:44.932Z,24.13
2023-04-17T03:03:11.494Z,24.02
2023-04-17T03:05:38.024Z,23.60
2023-04-17T03:08:04.758Z,22.90
2023-04-17T03:10:31.199Z,23.00
2023-04-17T03:12:57.689Z,23.35
2023-04-17T03:15:24.141Z,20.80
2023-04-17T03:17:50.828Z,21.52
2023-04-17T03:20:17.873Z,19.98
2023-04-17T03:22:44.306Z,22.80
2023-04-17T03:25:11.215Z,23.25
2023-04-17T03:27:38.752Z,21.30
2023-04-17T03:30:06.157Z,23.55
2023-04-17T03:32:33.000Z,21.35
2023-04-17T03:34:59.529Z,22.27
2023-04-17T03:37:25.987Z,21.25
2023-04-17T03:39:52.424Z,22.75
2023-04-17T03:42:18.883Z,29.58
2023-04-17T03:44:45.299Z,22.33
2023-04-17T03:47:11.707Z,19.50
2023-04-17T03:49:38.159Z,22.23
2023-04-17T03:52:05.070Z,20.15
2023-04-17T03:54:35.315Z,19.48
2023-04-17T03:57:03.238Z,19.92
2023-04-17T03:59:31.526Z,21.43
2023-04-17T04:01:58.125Z,19.80
2023-04-17T04:04:25.401Z,19.40
2023-04-17T04:06:54.384Z,23.08
2023-04-17T04:09:21.469Z,22.58
2023-04-17T04:11:48.170Z,23.63
2023-04-17T04:14:14.806Z,20.48
2023-04-17T04:16:41.442Z,20.77
2023-04-17T04:19:08.110Z,22.90
2023-04-17T04:21:34.646Z,22.40
2023-04-17T04:24:01.311Z,23.60
2023-04-17T04:26:27.690Z,21.80
2023-04-17T04:28:54.400Z,20.67
2023-04-17T04:31:21.468Z,23.52
2023-04-17T04:33:47.986Z,23.13
2023-04-17T04:36:20.131Z,20.20
2023-04-17T04:38:46.609Z,19.90
2023-04-17T04:41:13.319Z,21.05
2023-04-17T04:43:39.964Z,23.20
2023-04-17T04:46:08.623Z,22.48
2023-04-17T04:48:35.309Z,21.33
2023-04-17T04:51:01.847Z,21.65
2023-04-17T04:53:28.759Z,22.35
2023-04-17T04:55:55.224Z,22.67
2023-04-17T04:58:21.654Z,23.73
2023-04-17T05:00:48.294Z,22.13
2023-04-17T05:03:15.167Z,22.52
2023-04-17T05:05:43.359Z,21.60
2023-04-17T05:08:09.755Z,21.83
2023-04-17T05:10:36.601Z,21.98
2023-04-17T05:13:03.110Z,23.17
2023-04-17T05:15:29.551Z,21.42
2023-04-17T05:17:56.186Z,19.50
2023-04-17T05:20:22.804Z,22.27
2023-04-17T05:22:49.691Z,20.38
2023-04-17T05:25:19.804Z,20.03
2023-04-17T05:27:46.642Z,19.50
2023-04-17T05:30:13.925Z,17.33
2023-04-17T05:32:40.482Z,18.20
2023-04-17T05:35:07.361Z,19.90
2023-04-17T05:37:33.798Z,19.97
2023-04-17T05:40:01.208Z,18.27
2023-04-17T05:42:27.666Z,18.52
2023-04-17T05:44:54.210Z,16.90
2023-04-17T05:47:20.708Z,19.40
2023-04-17T05:49:48.705Z,20.83
2023-04-17T05:52:15.175Z,21.08
2023-04-17T05:54:41.960Z,20.98
2023-04-17T05:57:08.373Z,20.05
2023-04-17T05:59:34.844Z,21.02
2023-04-17T06:02:01.995Z,20.47
2023-04-17T06:04:29.530Z,22.33
2023-04-17T06:06:56.561Z,19.80
2023-04-17T06:09:24.573Z,20.00
2023-04-17T06:11:52.253Z,19.48
2023-04-17T06:14:18.696Z,20.17
2023-04-17T06:16:45.588Z,19.52
2023-04-17T06:19:12.271Z,19.02
2023-04-17T06:21:38.864Z,19.95
2023-04-17T06:24:05.731Z,20.05
2023-04-17T06:26:32.402Z,18.70
2023-04-17T06:28:58.941Z,20.38
2023-04-17T06:31:25.461Z,19.67
2023-04-17T06:33:51.973Z,20.50
2023-04-17T06:36:18.467Z,19.52
2023-04-17T06:38:44.984Z,19.47
2023-04-17T06:41:11.386Z,19.20
2023-04-17T06:43:37.986Z,19.33
2023-04-17T06:46:04.567Z,19.90
2023-04-17T06:48:31.103Z,21.20
2023-04-17T06:50:57.632Z,20.97
2023-04-17T06:53:24.012Z,19.50
2023-04-17T06:55:50.488Z,20.08
2023-04-17T06:58:16.878Z,20.10
2023-04-17T07:00:43.543Z,20.73
2023-04-17T07:03:10.151Z,19.83
2023-04-17T07:05:36.791Z,19.65
2023-04-17T07:08:03.312Z,19.67
2023-04-17T07:10:29.815Z,17.90
2023-04-17T07:12:56.514Z,19.88
2023-04-17T07:15:23.046Z,19.17
2023-04-17T07:17:49.617Z,21.02
2023-04-17T07:20:16.100Z,20.73
2023-04-17T07:22:43.126Z,19.90
2023-04-17T07:25:09.843Z,21.20
2023-04-17T07:27:38.252Z,19.63
2023-04-17T07:30:08.049Z,20.50
2023-04-17T07:32:34.596Z,19.98
2023-04-17T07:35:01.021Z,21.05
2023-04-17T07:37:27.531Z,19.45
2023-04-17T07:39:54.019Z,19.60
2023-04-17T07:42:20.538Z,20.35
2023-04-17T07:44:48.495Z,19.38
2023-04-17T07:47:15.119Z,20.33
2023-04-17T07:49:41.794Z,18.95
2023-04-17T07:52:08.754Z,19.83
2023-04-17T07:54:35.345Z,18.48
2023-04-17T07:57:03.595Z,19.20
2023-04-17T07:59:30.703Z,18.67
2023-04-17T08:01:57.642Z,18.80
2023-04-17T08:04:25.366Z,18.30
2023-04-17T08:06:52.288Z,19.52
2023-04-17T08:09:20.381Z,17.23
2023-04-17T08:11:56.106Z,16.70
2023-04-17T08:14:25.022Z,17.83
2023-04-17T08:16:51.816Z,16.13
2023-04-17T08:19:18.499Z,17.40
2023-04-17T08:21:47.460Z,16.42
2023-04-17T08:24:14.072Z,17.00
2023-04-17T08:26:40.770Z,18.50
2023-04-17T08:29:08.272Z,16.97
2023-04-17T08:31:39.949Z,17.20
2023-04-17T08:34:14.254Z,16.02
2023-04-17T08:36:41.358Z,13.98
2023-04-17T08:39:10.229Z,14.60
2023-04-17T08:41:45.217Z,14.40
2023-04-17T08:44:11.941Z,13.60
2023-04-17T08:46:38.948Z,12.23
2023-04-17T08:49:08.510Z,12.80
2023-04-17T08:51:35.464Z,13.27
2023-04-17T08:54:01.982Z,12.70
2023-04-17T08:56:29.853Z,12.77
2023-04-17T08:58:56.299Z,12.15
2023-04-17T09:01:25.721Z,13.27
2023-04-17T09:03:52.666Z,12.45
2023-04-17T09:06:19.367Z,12.03
2023-04-17T09:09:00.094Z,12.48
2023-04-17T09:11:27.284Z,12.73
2023-04-17T09:13:54.259Z,14.15
2023-04-17T09:16:21.177Z,12.00
2023-04-17T09:18:48.326Z,11.40
2023-04-17T09:21:18.594Z,11.15
2023-04-17T09:23:52.287Z,10.70
2023-04-17T09:26:22.303Z,10.00
2023-04-17T09:29:08.854Z,10.65
2023-04-17T09:31:37.470Z,11.37
2023-04-17T09:34:07.429Z,10.95
2023-04-17T09:36:36.880Z,11.77
2023-04-17T09:39:05.844Z,10.90
2023-04-17T09:41:36.274Z,11.60
2023-04-17T09:44:05.711Z,11.17
2023-04-17T09:46:35.845Z,12.07
2023-04-17T09:49:08.868Z,10.00
2023-04-17T09:51:35.805Z,9.93
2023-04-17T09:54:06.989Z,9.70
2023-04-17T09:56:35.502Z,8.83
2023-04-17T09:59:04.087Z,9.50
2023-04-17T10:01:32.765Z,9.00
2023-04-17T10:04:00.608Z,8.80
2023-04-17T10:06:27.717Z,8.48
2023-04-17T10:08:54.987Z,7.87
2023-04-17T10:11:27.574Z,8.27
2023-04-17T10:14:19.686Z,9.13
2023-04-17T10:16:48.207Z,9.20
2023-04-17T10:19:32.290Z,9.48
2023-04-17T10:22:20.067Z,10.00
2023-04-17T10:25:12.978Z,9.98
2023-04-17T10:27:42.649Z,8.65
2023-04-17T10:30:12.948Z,8.95
2023-04-17T10:32:41.999Z,9.57
2023-04-17T10:35:17.532Z,8.97
2023-04-17T10:37:47.027Z,7.72
2023-04-17T10:40:24.777Z,8.85
2023-04-17T10:43:25.173Z,8.35
2023-04-17T10:46:00.731Z,6.35
2023-04-17T10:48:33.357Z,5.70
2023-04-17T10:51:01.155Z,5.65
2023-04-17T10:53:41.507Z,6.20
2023-04-17T10:56:10.012Z,6.70
2023-04-17T10:58:54.641Z,6.57
2023-04-17T11:01:26.064Z,5.27
2023-04-17T11:03:53.169Z,5.05
2023-04-17T11:06:20.341Z,5.03
2023-04-17T11:08:49.110Z,7.45
2023-04-17T11:11:23.523Z,5.90
2023-04-17T11:13:57.231Z,5.60
2023-04-17T11:16:24.932Z,4.47
2023-04-17T11:18:52.199Z,4.43
2023-04-17T11:21:21.272Z,4.60
2023-04-17T11:23:52.353Z,5.07
2023-04-17T11:26:20.848Z,5.30
2023-04-17T11:28:47.975Z,5.45
2023-04-17T11:31:16.527Z,5.00
2023-04-17T11:33:48.048Z,4.75
2023-04-17T11:36:14.519Z,5.13
2023-04-17T11:38:49.922Z,5.00
2023-04-17T11:41:16.496Z,4.80
2023-04-17T11:43:44.439Z,4.60
2023-04-17T11:46:11.100Z,4.60
2023-04-17T11:48:37.827Z,4.25
2023-04-17T11:51:05.635Z,4.63
2023-04-17T11:53:34.905Z,5.30
2023-04-17T11:56:15.683Z,5.05
2023-04-17T11:58:49.737Z,4.70
2023-04-17T12:01:18.078Z,5.00
2023-04-17T12:03:45.542Z,5.37
2023-04-17T12:06:13.124Z,5.18
2023-04-17T12:08:54.022Z,5.00
2023-04-17T12:11:26.545Z,4.57
2023-04-17T12:13:55.934Z,4.63
2023-04-17T12:16:27.175Z,5.20
2023-04-17T12:18:54.273Z,5.20
2023-04-17T12:21:23.705Z,4.82
2023-04-17T12:23:50.938Z,5.70
2023-04-17T12:26:17.430Z,5.30
2023-04-17T12:28:43.997Z,5.50
2023-04-17T12:31:10.636Z,5.38
2023-04-17T12:33:37.185Z,9.80
2023-04-17T12:36:05.409Z,5.45
2023-04-17T12:38:32.165Z,5.63
2023-04-17T12:40:58.815Z,5.40
2023-04-17T12:43:25.381Z,5.28
2023-04-17T12:45:54.836Z,5.47
2023-04-17T12:48:21.361Z,4.97
2023-04-17T12:50:47.826Z,5.55
2023-04-17T12:53:15.268Z,5.03
2023-04-17T12:55:43.608Z,5.72
2023-04-17T12:58:12.332Z,5.75
2023-04-17T13:00:43.340Z,5.82
2023-04-17T13:03:11.553Z,5.70
2023-04-17T13:05:38.432Z,5.60
2023-04-17T13:08:05.071Z,5.20
2023-04-17T13:10:31.582Z,4.82
2023-04-17T13:12:59.201Z,4.68
2023-04-17T13:15:25.751Z,5.40
2023-04-17T13:17:52.192Z,5.00
2023-04-17T13:20:18.845Z,5.20
2023-04-17T13:22:47.287Z,5.55
2023-04-17T13:25:13.722Z,4.80
2023-04-17T13:27:40.557Z,5.15
2023-04-17T13:30:07.530Z,5.77
2023-04-17T13:32:34.985Z,4.82
2023-04-17T13:35:02.891Z,5.07
2023-04-17T13:37:29.456Z,5.65
2023-04-17T13:39:55.874Z,5.60
2023-04-17T13:42:22.387Z,5.23
2023-04-17T13:44:49.528Z,5.50
2023-04-17T13:47:16.068Z,6.80
2023-04-17T13:49:52.420Z,4.57
2023-04-17T13:52:19.017Z,5.78
2023-04-17T13:54:45.665Z,5.13
2023-04-17T13:57:14.608Z,4.47
2023-04-17T13:59:44.309Z,5.07
2023-04-17T14:02:11.062Z,4.93
2023-04-17T14:04:37.856Z,4.90
2023-04-17T14:07:04.500Z,4.67
2023-04-17T14:09:31.024Z,4.55
2023-04-17T14:11:58.147Z,5.38
2023-04-17T14:14:24.839Z,5.10
2023-04-17T14:16:51.433Z,4.97
2023-04-17T14:19:18.171Z,5.27
2023-04-17T14:21:44.913Z,5.03
2023-04-17T14:24:11.492Z,6.18
2023-04-17T14:26:38.560Z,5.43
2023-04-17T14:29:05.042Z,4.68
2023-04-17T14:31:31.870Z,4.70
2023-04-17T14:33:58.494Z,5.40
2023-04-17T14:36:25.087Z,4.65
2023-04-17T14:38:53.587Z,4.63
2023-04-17T14:41:20.401Z,5.05
2023-04-17T14:43:46.803Z,5.90
2023-04-17T14:46:13.329Z,5.43
2023-04-17T14:48:52.293Z,5.03
2023-04-17T14:51:22.412Z,4.82
2023-04-17T14:53:48.875Z,4.78
2023-04-17T14:56:15.939Z,4.70
2023-04-17T14:58:43.330Z,4.50
2023-04-17T15:01:10.348Z,4.60
2023-04-17T15:03:37.171Z,4.78
2023-04-17T15:06:04.057Z,4.72
2023-04-17T15:08:31.174Z,4.90
2023-04-17T15:10:58.562Z,5.10
2023-04-17T15:13:25.075Z,4.43
2023-04-17T15:15:51.513Z,4.25
2023-04-17T15:18:17.976Z,4.93
2023-04-17T15:20:44.510Z,5.23
2023-04-17T15:23:10.934Z,4.90
2023-04-17T15:25:37.401Z,5.00
2023-04-17T15:28:03.967Z,6.20
2023-04-17T15:30:30.421Z,6.32
2023-04-17T15:32:56.894Z,5.40
2023-04-17T15:35:23.312Z,6.72
2023-04-17T15:37:49.797Z,4.82
2023-04-17T15:40:16.632Z,5.07
2023-04-17T15:42:43.567Z,4.78
2023-04-17T15:45:10.747Z,7.23
2023-04-17T15:47:37.413Z,5.53
2023-04-17T15:50:04.392Z,5.72
2023-04-17T15:52:30.908Z,8.43
2023-04-17T15:54:57.416Z,8.27
2023-04-17T15:57:23.862Z,15.30
2023-04-17T15:59:50.993Z,6.18
2023-04-17T16:02:17.524Z,7.20
2023-04-17T16:04:44.186Z,6.70
2023-04-17T16:07:11.952Z,6.78
2023-04-17T16:09:39.851Z,4.90
2023-04-17T16:12:10.360Z,5.47
2023-04-17T16:14:37.481Z,4.97
2023-04-17T16:17:04.200Z,5.45
2023-04-17T16:19:31.260Z,5.85
2023-04-17T16:21:58.350Z,5.20
2023-04-17T16:24:25.531Z,4.70
2023-04-17T16:26:57.391Z,4.72
2023-04-17T16:29:27.817Z,6.28
2023-04-17T16:31:55.491Z,5.57
2023-04-17T16:34:22.177Z,5.30
2023-04-17T16:36:49.553Z,5.53
2023-04-17T16:39:16.237Z,6.47
2023-04-17T16:41:43.513Z,5.85
2023-04-17T16:44:10.054Z,6.25
2023-04-17T16:46:52.098Z,6.97
2023-04-17T16:49:23.130Z,6.03
2023-04-17T16:51:49.783Z,5.07
2023-04-17T16:54:16.244Z,5.93
2023-04-17T16:56:43.075Z,6.68
2023-04-17T16:59:09.436Z,8.20
2023-04-17T17:01:36.009Z,14.55
2023-04-17T17:04:02.648Z,10.45
2023-04-17T17:06:29.711Z,7.10
2023-04-17T17:08:56.147Z,5.80
2023-04-17T17:11:22.665Z,6.33
2023-04-17T17:13:51.212Z,6.47
2023-04-17T17:16:19.101Z,8.32
2023-04-17T17:18:46.037Z,6.32
2023-04-17T17:21:12.945Z,6.30
2023-04-17T17:23:39.642Z,7.47
2023-04-17T17:26:06.655Z,7.63
2023-04-17T17:28:35.078Z,6.90
2023-04-17T17:31:07.573Z,6.80
2023-04-17T17:33:35.078Z,18.45
2023-04-17T17:36:02.931Z,13.80
2023-04-17T17:38:30.820Z,14.07
2023-04-17T17:40:57.313Z,8.27
2023-04-17T17:43:24.079Z,7.00
2023-04-17T17:45:50.995Z,7.60
2023-04-17T17:48:18.269Z,8.60
2023-04-17T17:50:45.069Z,6.70
2023-04-17T17:53:11.815Z,6.95
2023-04-17T17:55:38.527Z,6.72
2023-04-17T17:58:06.464Z,7.32
2023-04-17T18:00:33.676Z,7.20
2023-04-17T18:03:00.623Z,7.53
2023-04-17T18:05:27.358Z,7.70
2023-04-17T18:07:53.849Z,7.03
2023-04-17T18:10:20.308Z,7.85
2023-04-17T18:12:46.821Z,7.30
2023-04-17T18:15:13.297Z,9.02
2023-04-17T18:17:39.819Z,7.97
2023-04-17T18:20:06.960Z,6.88
2023-04-17T18:22:33.601Z,6.97
2023-04-17T18:25:00.027Z,7.00
2023-04-17T18:27:26.659Z,6.63
2023-04-17T18:29:53.133Z,6.32
2023-04-17T18:32:19.609Z,7.20
2023-04-17T18:34:49.099Z,8.30
2023-04-17T18:37:17.825Z,11.20
2023-04-17T18:39:44.798Z,10.95
2023-04-17T18:42:11.332Z,7.38
2023-04-17T18:44:37.924Z,6.38
2023-04-17T18:47:04.697Z,6.93
2023-04-17T18:49:31.173Z,7.63
2023-04-17T18:51:57.764Z,7.97
2023-04-17T18:54:24.372Z,8.02
2023-04-17T18:56:50.924Z,7.60
2023-04-17T18:59:20.669Z,7.03
2023-04-17T19:01:47.868Z,7.60
2023-04-17T19:04:14.572Z,7.50
2023-04-17T19:06:41.206Z,7.22
2023-04-17T19:09:08.036Z,7.78
2023-04-17T19:11:34.622Z,9.75
2023-04-17T19:14:01.096Z,8.57
2023-04-17T19:16:27.757Z,7.90
2023-04-17T19:18:54.334Z,8.00
2023-04-17T19:21:23.902Z,7.30
2023-04-17T19:23:51.483Z,7.50
2023-04-17T19:26:18.045Z,7.70
2023-04-17T19:28:44.554Z,7.82
2023-04-17T19:31:11.137Z,8.05
2023-04-17T19:33:37.647Z,7.68
2023-04-17T19:39:28.936Z,9.10
2023-04-17T19:41:58.399Z,8.95
2023-04-17T19:44:27.321Z,7.85
2023-04-17T19:46:54.989Z,7.28
2023-04-17T19:49:23.657Z,8.73
2023-04-17T19:51:50.315Z,8.60
2023-04-17T19:54:16.846Z,8.60
2023-04-17T19:56:45.400Z,18.67
2023-04-17T19:59:13.442Z,18.83
2023-04-17T20:01:42.944Z,12.48
2023-04-17T20:04:10.442Z,9.20
2023-04-17T20:06:37.110Z,11.40
2023-04-17T20:09:04.731Z,15.43
2023-04-17T20:11:31.219Z,14.70
2023-04-17T20:13:57.756Z,10.93
2023-04-17T20:16:24.356Z,12.47
2023-04-17T20:18:52.065Z,12.43
2023-04-17T20:21:18.786Z,11.65
2023-04-17T20:23:45.688Z,11.60
2023-04-17T20:26:12.201Z,10.35
2023-04-17T20:28:38.677Z,9.73
2023-04-17T20:31:05.154Z,11.77
2023-04-17T20:33:31.753Z,9.80
2023-04-17T20:35:58.369Z,9.88
2023-04-17T20:38:25.665Z,9.27
2023-04-17T20:40:52.168Z,10.73
2023-04-17T20:43:18.877Z,10.30
2023-04-17T20:45:45.690Z,11.40
2023-04-17T20:48:12.188Z,11.10
2023-04-17T20:50:38.626Z,12.32
2023-04-17T20:53:05.244Z,11.67
2023-04-17T20:55:31.606Z,11.23
2023-04-17T20:57:58.036Z,10.88
2023-04-17T21:00:24.555Z,10.38
2023-04-17T21:02:51.147Z,9.93
2023-04-17T21:05:19.160Z,10.50
2023-04-17T21:07:45.527Z,11.75
2023-04-17T21:10:11.955Z,11.15
2023-04-17T21:12:38.402Z,11.98
2023-04-17T21:15:05.372Z,11.70
2023-04-17T21:17:31.788Z,12.27
2023-04-17T21:19:58.263Z,12.82
2023-04-17T21:22:24.786Z,11.48
2023-04-17T21:24:51.236Z,10.35
2023-04-17T21:27:17.710Z,12.80
2023-04-17T21:29:44.232Z,11.50
2023-04-17T21:32:10.778Z,11.57
2023-04-17T21:34:37.184Z,11.52
2023-04-17T21:37:04.886Z,10.98
2023-04-17T21:39:33.091Z,10.95
2023-04-17T21:41:59.985Z,11.90
2023-04-17T21:44:26.505Z,12.00
2023-04-17T21:46:53.047Z,11.65
2023-04-17T21:49:20.062Z,11.10
2023-04-17T21:51:46.512Z,10.88
2023-04-17T21:54:13.071Z,11.47
2023-04-17T21:56:39.657Z,11.13
2023-04-17T21:59:06.113Z,12.93
2023-04-17T22:01:32.982Z,16.98
2023-04-17T22:03:59.524Z,12.80
2023-04-17T22:06:26.392Z,12.50
2023-04-17T22:08:53.017Z,11.23
2023-04-17T22:11:19.565Z,10.82
2023-04-17T22:13:47.063Z,11.25
2023-04-17T22:16:13.670Z,14.43
2023-04-17T22:18:40.205Z,12.97
2023-04-17T22:21:06.961Z,13.00
2023-04-17T22:23:33.425Z,12.63
2023-04-17T22:25:59.901Z,12.60
2023-04-17T22:28:29.918Z,11.68
2023-04-17T22:30:57.587Z,11.50
2023-04-17T22:33:24.180Z,13.02
2023-04-17T22:35:50.668Z,12.70
2023-04-17T22:38:18.784Z,12.27
2023-04-17T22:40:45.212Z,12.10
2023-04-17T22:43:11.597Z,11.97
2023-04-17T22:45:37.950Z,12.52
2023-04-17T22:48:04.511Z,11.65
2023-04-17T22:50:32.471Z,10.77
2023-04-17T22:52:58.973Z,11.98
2023-04-17T22:55:25.457Z,12.37
2023-04-17T22:57:52.540Z,12.10
2023-04-17T23:00:20.126Z,11.98
2023-04-17T23:02:47.351Z,11.82
2023-04-17T23:05:14.221Z,11.55
2023-04-17T23:07:41.078Z,10.90
2023-04-17T23:10:08.039Z,10.93
2023-04-17T23:12:34.684Z,12.65
2023-04-17T23:15:01.207Z,11.77
2023-04-17T23:17:27.738Z,12.80
2023-04-17T23:19:54.216Z,12.37
2023-04-17T23:22:20.713Z,12.07
2023-04-17T23:24:47.128Z,11.07
2023-04-17T23:27:13.549Z,12.18
2023-04-17T23:29:39.972Z,11.60
2023-04-17T23:32:07.249Z,12.60
2023-04-17T23:34:33.675Z,12.48
2023-04-17T23:37:02.050Z,11.65
2023-04-17T23:39:28.761Z,12.45
2023-04-17T23:41:55.233Z,12.90
2023-04-17T23:44:21.657Z,13.30
2023-04-17T23:46:48.120Z,13.32
2023-04-17T23:49:14.684Z,11.85
2023-04-17T23:51:41.118Z,11.27
2023-04-17T23:54:07.996Z,13.00
2023-04-17T23:56:34.499Z,13.53
2023-04-17T23:59:00.890Z,11.25
